Time;durP1;ratioP1;P1;durP2;ratioP2;P2;SDS_P1;SDS_P2;PMS_P1;PMS_P2;Temp;Humidity;BMP_temperature;BMP_pressure;BME280_temperature;BME280_humidity;BME280_pressure;Samples;Min_cycle;Max_cycle;Signal;HPM_P1;HPM_P2
2023/11/04 00:00:34;;;;;;;5.20;1.48;;;6.60;99.90;;;;;;6239673;28;20049;-79
2023/11/04 00:03:35;;;;;;;1.23;0.88;;;6.70;99.90;;;;;;6231508;28;20603;-80
2023/11/04 00:06:38;;;;;;;2.67;0.85;;;6.80;99.90;;;;;;6229553;28;20041;-78
2023/11/04 00:09:41;;;;;;;2.92;1.10;;;6.90;99.90;;;;;;6229322;28;20177;-80
2023/11/04 00:12:51;;;;;;;1.52;0.98;;;7.00;99.90;;;;;;6230935;28;20054;-78
2023/11/04 00:15:53;;;;;;;1.65;1.15;;;7.10;99.90;;;;;;6237357;28;20046;-79
2023/11/04 00:19:04;;;;;;;1.23;0.68;;;7.20;99.90;;;;;;6251257;28;20560;-78
2023/11/04 00:22:07;;;;;;;1.88;0.85;;;7.30;99.90;;;;;;6234810;28;20572;-79
2023/11/04 00:25:10;;;;;;;0.75;0.75;;;7.40;99.90;;;;;;6253420;28;20042;-79
2023/11/04 00:28:13;;;;;;;0.95;0.70;;;7.40;99.90;;;;;;6254364;28;20152;-79
2023/11/04 00:31:15;;;;;;;1.25;0.95;;;7.50;99.90;;;;;;6241259;28;20045;-79
2023/11/04 00:34:17;;;;;;;0.80;0.77;;;7.60;99.90;;;;;;6229529;28;20083;-78
2023/11/04 00:37:19;;;;;;;0.68;0.47;;;7.70;99.90;;;;;;6249179;28;20037;-78
2023/11/04 00:40:21;;;;;;;2.92;0.68;;;7.70;99.90;;;;;;6245649;28;20057;-79
2023/11/04 00:43:24;;;;;;;0.57;0.50;;;7.80;99.90;;;;;;6253286;28;20057;-79
2023/11/04 00:46:26;;;;;;;1.58;0.63;;;7.80;99.90;;;;;;6239699;28;20591;-79
2023/11/04 00:49:28;;;;;;;2.03;1.25;;;7.80;99.90;;;;;;6228955;28;20049;-79
2023/11/04 00:52:30;;;;;;;1.15;0.73;;;7.90;99.90;;;;;;6251746;28;20049;-79
2023/11/04 00:55:32;;;;;;;0.95;0.60;;;7.90;99.90;;;;;;6247388;28;20495;-78
2023/11/04 00:58:36;;;;;;;0.88;0.85;;;7.90;99.90;;;;;;6242665;28;20444;-78
2023/11/04 01:01:38;;;;;;;1.52;1.23;;;8.00;99.90;;;;;;6234993;28;20171;-79
2023/11/04 01:04:40;;;;;;;1.13;0.70;;;8.00;99.90;;;;;;6254243;28;20524;-79
2023/11/04 01:07:42;;;;;;;2.63;0.85;;;8.00;99.90;;;;;;6244510;28;20049;-79
2023/11/04 01:10:44;;;;;;;1.10;0.77;;;8.00;99.90;;;;;;6236727;28;20085;-79
2023/11/04 01:13:50;;;;;;;0.57;0.57;;;8.10;99.90;;;;;;6236001;28;20681;-78
2023/11/04 01:16:52;;;;;;;1.00;0.70;;;8.10;99.90;;;;;;6237343;28;20132;-78
2023/11/04 01:19:55;;;;;;;1.00;0.50;;;8.20;99.90;;;;;;6251810;28;20056;-79
2023/11/04 01:22:57;;;;;;;3.17;0.60;;;8.20;99.90;;;;;;6238705;28;20133;-79
2023/11/04 01:25:59;;;;;;;1.88;0.68;;;8.20;99.90;;;;;;6234975;28;20038;-78
2023/11/04 01:29:02;;;;;;;0.60;0.55;;;8.20;99.90;;;;;;6244131;28;20045;-78
2023/11/04 01:32:05;;;;;;;1.58;0.40;;;8.10;99.90;;;;;;6248639;28;20148;-78
2023/11/04 01:35:08;;;;;;;1.25;0.80;;;8.10;99.90;;;;;;6246454;28;20125;-78
2023/11/04 01:38:10;;;;;;;0.50;0.45;;;8.00;99.90;;;;;;6248459;28;20052;-79
2023/11/04 01:41:12;;;;;;;0.35;0.32;;;7.90;99.90;;;;;;6238126;28;20142;-78
2023/11/04 01:44:15;;;;;;;2.20;0.50;;;7.80;99.90;;;;;;6240407;28;20042;-79
2023/11/04 01:47:17;;;;;;;4.45;0.70;;;7.80;99.90;;;;;;6239435;28;20037;-79
2023/11/04 01:50:20;;;;;;;0.52;0.52;;;7.90;99.90;;;;;;6252624;28;20051;-79
2023/11/04 01:53:22;;;;;;;0.82;0.75;;;7.90;99.90;;;;;;6235960;28;20057;-78
2023/11/04 01:56:28;;;;;;;0.50;0.50;;;7.90;99.90;;;;;;6242257;28;20057;-78
2023/11/04 01:59:32;;;;;;;0.73;0.40;;;7.80;99.90;;;;;;6235380;28;20394;-77
2023/11/04 02:02:36;;;;;;;1.55;0.47;;;7.80;99.90;;;;;;6235824;28;20054;-78
2023/11/04 02:05:56;;;;;;;0.43;0.43;;;7.70;99.90;;;;;;6235737;28;20100;-78
2023/11/04 02:08:59;;;;;;;0.30;0.30;;;7.70;99.90;;;;;;6229897;28;20130;-78
2023/11/04 02:12:03;;;;;;;0.47;0.47;;;7.60;99.90;;;;;;6235702;28;20065;-79
2023/11/04 02:15:16;;;;;;;0.82;0.70;;;7.60;99.90;;;;;;6234110;28;20054;-78
2023/11/04 02:18:18;;;;;;;0.55;0.50;;;7.50;99.90;;;;;;6227185;28;20503;-78
2023/11/04 02:21:22;;;;;;;2.65;0.75;;;7.50;99.90;;;;;;6224609;28;20062;-79
2023/11/04 02:24:24;;;;;;;2.15;0.60;;;7.50;99.90;;;;;;6247042;28;20046;-78
2023/11/04 02:27:26;;;;;;;1.88;0.63;;;7.50;99.90;;;;;;6231729;28;20122;-79
2023/11/04 02:30:28;;;;;;;4.18;0.70;;;7.40;99.90;;;;;;6252702;28;20076;-79
2023/11/04 02:33:30;;;;;;;2.47;0.65;;;7.30;99.90;;;;;;6242753;28;20530;-78
2023/11/04 02:36:35;;;;;;;0.60;0.60;;;7.30;99.90;;;;;;6231546;28;20135;-79
2023/11/04 02:39:38;;;;;;;0.77;0.60;;;7.20;99.90;;;;;;6235443;28;20045;-78
2023/11/04 02:42:40;;;;;;;0.57;0.57;;;7.10;99.90;;;;;;6249221;28;20050;-78
2023/11/04 02:45:43;;;;;;;0.85;0.60;;;7.10;99.90;;;;;;6239043;28;20429;-79
2023/11/04 02:48:45;;;;;;;1.33;0.68;;;7.10;99.90;;;;;;6246742;28;20127;-78
2023/11/04 02:51:48;;;;;;;0.57;0.57;;;7.30;99.90;;;;;;6230172;28;20046;-79
2023/11/04 02:54:50;;;;;;;3.40;0.70;;;7.40;99.90;;;;;;6229533;28;20105;-79
2023/11/04 02:57:52;;;;;;;0.88;0.60;;;7.50;99.90;;;;;;6253972;28;20060;-78
2023/11/04 03:00:55;;;;;;;1.17;0.43;;;7.60;99.90;;;;;;6222861;28;20556;-79
2023/11/04 03:03:59;;;;;;;0.65;0.45;;;7.70;99.90;;;;;;6238019;28;20042;-79
2023/11/04 03:07:03;;;;;;;2.05;0.60;;;7.90;99.90;;;;;;6238446;28;20046;-79
2023/11/04 03:10:06;;;;;;;1.83;0.60;;;8.00;99.90;;;;;;6239451;28;20413;-78
2023/11/04 03:13:09;;;;;;;0.35;0.35;;;8.10;99.90;;;;;;6240278;28;20415;-79
2023/11/04 03:16:18;;;;;;;0.35;0.35;;;8.10;99.90;;;;;;6246142;28;20057;-79
2023/11/04 03:19:20;;;;;;;0.88;0.40;;;8.20;99.90;;;;;;6237526;28;20430;-78
2023/11/04 03:22:23;;;;;;;0.80;0.40;;;8.20;99.90;;;;;;6249420;28;20050;-79
2023/11/04 03:25:25;;;;;;;0.85;0.45;;;8.20;99.90;;;;;;6231570;28;20113;-79
2023/11/04 03:28:27;;;;;;;1.63;0.40;;;8.20;99.90;;;;;;6241119;28;20054;-79
2023/11/04 03:31:30;;;;;;;1.33;0.38;;;8.20;99.90;;;;;;6232735;28;20062;-79
2023/11/04 03:34:32;;;;;;;1.02;0.45;;;8.20;99.90;;;;;;6244975;28;20148;-79
2023/11/04 03:37:37;;;;;;;2.75;0.70;;;8.20;99.90;;;;;;6250948;28;20116;-78
2023/11/04 03:40:42;;;;;;;0.45;0.45;;;8.10;99.90;;;;;;6246378;28;20453;-77
2023/11/04 03:43:44;;;;;;;1.10;0.90;;;8.00;99.90;;;;;;6245756;28;20053;-79
2023/11/04 03:46:46;;;;;;;0.30;0.30;;;7.90;99.90;;;;;;6231596;28;20545;-79
2023/11/04 03:49:48;;;;;;;0.40;0.40;;;7.80;99.90;;;;;;6254451;28;20061;-79
2023/11/04 03:52:51;;;;;;;2.45;0.52;;;7.80;99.90;;;;;;6249279;28;20053;-79
2023/11/04 03:55:53;;;;;;;0.60;0.30;;;7.70;99.90;;;;;;6247662;28;20057;-78
2023/11/04 03:58:55;;;;;;;0.88;0.85;;;7.50;99.90;;;;;;6239109;28;20049;-78
2023/11/04 04:01:57;;;;;;;0.30;0.30;;;7.40;99.90;;;;;;6231526;28;20052;-78
2023/11/04 04:05:00;;;;;;;0.95;0.43;;;7.40;99.90;;;;;;6248272;28;20111;-78
2023/11/04 04:08:04;;;;;;;0.90;0.68;;;7.30;99.90;;;;;;6246012;28;20060;-78
2023/11/04 04:11:06;;;;;;;0.40;0.40;;;7.30;99.90;;;;;;6251141;28;20052;-78
2023/11/04 04:14:08;;;;;;;1.85;0.50;;;7.20;99.90;;;;;;6240274;28;20049;-78
2023/11/04 04:17:10;;;;;;;1.85;0.60;;;7.20;99.90;;;;;;6239692;28;20057;-79
2023/11/04 04:20:14;;;;;;;0.32;0.30;;;7.10;99.90;;;;;;6248741;28;20180;-79
2023/11/04 04:23:17;;;;;;;2.22;2.03;;;7.00;99.90;;;;;;6244976;28;20049;-77
2023/11/04 04:26:20;;;;;;;0.28;0.22;;;7.00;99.90;;;;;;6238887;28;20042;-79
2023/11/04 04:29:23;;;;;;;0.93;0.30;;;7.00;99.90;;;;;;6237659;28;20060;-78
2023/11/04 04:32:25;;;;;;;0.52;0.50;;;6.90;99.90;;;;;;6241887;28;20053;-78
2023/11/04 04:35:28;;;;;;;0.90;0.57;;;6.90;99.90;;;;;;6238648;28;20101;-78
2023/11/04 04:38:31;;;;;;;0.63;0.63;;;6.90;99.90;;;;;;6242412;28;20057;-78
2023/11/04 04:41:33;;;;;;;0.80;0.68;;;6.90;99.90;;;;;;6246362;28;20045;-78
2023/11/04 04:44:37;;;;;;;5.32;0.95;;;6.90;99.90;;;;;;6234690;28;20060;-78
2023/11/04 04:47:40;;;;;;;0.32;0.30;;;7.00;99.90;;;;;;6247505;28;20064;-78
2023/11/04 04:50:42;;;;;;;0.32;0.30;;;7.10;99.90;;;;;;6236178;28;20137;-78
2023/11/04 04:53:45;;;;;;;0.30;0.30;;;7.30;99.90;;;;;;6239579;28;20108;-78
2023/11/04 04:56:48;;;;;;;0.28;0.22;;;7.40;99.90;;;;;;6230119;28;20050;-78
2023/11/04 04:59:50;;;;;;;2.65;0.47;;;7.50;99.90;;;;;;6243296;28;20034;-78
2023/11/04 05:02:54;;;;;;;0.47;0.45;;;7.50;99.90;;;;;;6236913;28;20089;-78
2023/11/04 05:05:56;;;;;;;1.13;0.50;;;7.60;99.90;;;;;;6263890;22;20052;-75
2023/11/04 05:08:59;;;;;;;0.45;0.45;;;7.70;99.90;;;;;;6279170;28;20413;-75
2023/11/04 05:12:01;;;;;;;0.95;0.40;;;7.70;99.90;;;;;;6262495;28;20041;-77
2023/11/04 05:15:04;;;;;;;0.50;0.30;;;7.70;99.90;;;;;;6270917;28;20501;-75
2023/11/04 05:18:05;;;;;;;0.32;0.32;;;7.70;99.90;;;;;;6286148;28;20509;-74
2023/11/04 05:21:07;;;;;;;0.57;0.40;;;7.80;99.90;;;;;;6295638;28;20056;-75
2023/11/04 05:24:10;;;;;;;1.08;1.02;;;7.80;99.90;;;;;;6283052;28;20045;-75
2023/11/04 05:27:12;;;;;;;0.30;0.30;;;7.80;99.90;;;;;;6285265;28;20049;-75
2023/11/04 05:30:14;;;;;;;0.50;0.20;;;7.90;99.90;;;;;;6270064;28;20052;-75
2023/11/04 05:33:17;;;;;;;0.50;0.43;;;7.90;99.90;;;;;;6270133;28;20080;-76
2023/11/04 05:36:19;;;;;;;0.25;0.25;;;7.80;99.90;;;;;;6273744;28;20045;-75
2023/11/04 05:39:22;;;;;;;0.70;0.50;;;7.80;99.90;;;;;;6278412;28;20040;-75
2023/11/04 05:42:24;;;;;;;0.32;0.32;;;7.60;99.90;;;;;;6278923;28;20041;-75
2023/11/04 05:45:27;;;;;;;0.75;0.55;;;7.60;99.90;;;;;;6282254;28;20045;-75
2023/11/04 05:48:28;;;;;;;0.70;0.60;;;7.50;99.90;;;;;;6282673;28;20044;-75
2023/11/04 05:51:31;;;;;;;0.30;0.30;;;7.50;99.90;;;;;;6294388;28;20382;-75
2023/11/04 05:54:34;;;;;;;0.43;0.32;;;7.40;99.90;;;;;;6282051;28;20416;-75
2023/11/04 05:57:35;;;;;;;0.73;0.43;;;7.30;99.90;;;;;;6282551;28;20041;-76
2023/11/04 06:00:37;;;;;;;0.50;0.50;;;7.30;99.90;;;;;;6287062;28;20052;-76
2023/11/04 06:03:39;;;;;;;0.77;0.47;;;7.30;99.90;;;;;;6281316;28;20116;-75
2023/11/04 06:06:40;;;;;;;2.65;0.65;;;7.20;99.90;;;;;;6275067;28;20062;-75
2023/11/04 06:09:44;;;;;;;1.30;0.47;;;7.10;99.90;;;;;;6294246;28;20040;-75
2023/11/04 06:12:45;;;;;;;0.75;0.57;;;7.10;99.90;;;;;;6281079;28;20059;-75
2023/11/04 06:15:47;;;;;;;0.32;0.32;;;7.00;99.90;;;;;;6277948;28;20041;-75
2023/11/04 06:18:49;;;;;;;0.88;0.50;;;6.90;99.90;;;;;;6283974;28;20043;-76
2023/11/04 06:21:50;;;;;;;2.20;1.20;;;6.80;99.90;;;;;;6271480;28;20117;-75
2023/11/04 06:24:53;;;;;;;0.35;0.35;;;6.70;99.90;;;;;;6284659;28;20048;-75
2023/11/04 06:27:55;;;;;;;0.35;0.35;;;6.60;99.90;;;;;;6278496;28;20052;-75
2023/11/04 06:30:57;;;;;;;0.85;0.55;;;6.50;99.90;;;;;;6269362;28;20041;-75
2023/11/04 06:33:58;;;;;;;2.42;0.60;;;6.40;99.90;;;;;;6269278;28;20493;-75
2023/11/04 06:37:02;;;;;;;6.90;0.93;;;6.30;99.90;;;;;;6293825;28;20052;-75
2023/11/04 06:40:08;;;;;;;0.82;0.52;;;6.10;99.90;;;;;;6277304;28;20041;-76
2023/11/04 06:43:10;;;;;;;0.63;0.45;;;6.10;99.90;;;;;;6262343;28;20052;-75
2023/11/04 06:46:12;;;;;;;1.30;0.40;;;6.00;99.90;;;;;;6265968;28;20076;-76
2023/11/04 06:49:14;;;;;;;0.80;0.80;;;5.90;99.90;;;;;;6277713;28;20049;-76
2023/11/04 06:56:14;;;;;;;1.00;0.75;;;5.90;99.90;;;;;;6269140;28;20033;-76
2023/11/04 06:59:17;;;;;;;2.60;0.68;;;5.90;99.90;;;;;;6269797;28;20210;-75
2023/11/04 07:02:20;;;;;;;0.63;0.45;;;5.90;99.90;;;;;;6270303;28;20041;-76
2023/11/04 07:05:22;;;;;;;0.60;0.57;;;6.10;99.90;;;;;;6270504;28;20532;-76
2023/11/04 07:08:24;;;;;;;2.13;0.77;;;6.20;99.90;;;;;;6258644;28;20434;-75
2023/11/04 07:11:27;;;;;;;5.55;0.98;;;6.30;99.90;;;;;;6266372;28;20037;-76
2023/11/04 07:14:30;;;;;;;0.82;0.63;;;6.40;99.90;;;;;;6271147;28;20694;-75
2023/11/04 07:17:32;;;;;;;1.05;0.90;;;6.40;99.90;;;;;;6270540;28;20602;-75
2023/11/04 07:20:34;;;;;;;1.65;0.70;;;6.40;99.90;;;;;;6267709;28;20560;-76
2023/11/04 07:23:36;;;;;;;0.50;0.40;;;6.50;99.90;;;;;;6266525;28;20520;-76
2023/11/04 07:26:39;;;;;;;2.72;1.00;;;6.50;99.90;;;;;;6283558;28;20044;-75
2023/11/04 07:29:41;;;;;;;0.70;0.63;;;6.60;99.90;;;;;;6298283;28;20037;-76
2023/11/04 07:32:43;;;;;;;0.95;0.57;;;6.80;99.90;;;;;;6290212;28;20048;-76
2023/11/04 07:35:44;;;;;;;3.60;0.70;;;7.00;99.90;;;;;;6276529;28;20040;-76
2023/11/04 07:38:46;;;;;;;0.85;0.45;;;7.20;99.90;;;;;;6273298;28;20485;-76
2023/11/04 07:41:49;;;;;;;1.15;0.50;;;7.30;99.90;;;;;;6273315;28;20063;-76
2023/11/04 07:44:52;;;;;;;0.45;0.45;;;7.50;99.90;;;;;;6287935;28;20082;-76
2023/11/04 07:47:53;;;;;;;1.10;0.57;;;7.60;99.90;;;;;;6275407;28;20052;-77
2023/11/04 07:50:55;;;;;;;0.90;0.52;;;7.80;99.90;;;;;;6269249;28;20041;-77
2023/11/04 07:53:57;;;;;;;0.95;0.38;;;7.90;99.90;;;;;;6284718;28;20044;-76
2023/11/04 07:57:00;;;;;;;1.33;0.63;;;8.10;99.90;;;;;;6287095;28;20504;-76
2023/11/04 08:00:05;;;;;;;0.73;0.73;;;8.40;99.90;;;;;;6281475;28;20409;-76
2023/11/04 08:03:06;;;;;;;4.47;0.57;;;8.70;99.90;;;;;;6280868;28;20044;-77
2023/11/04 08:06:08;;;;;;;0.68;0.55;;;9.10;99.90;;;;;;6274226;28;20045;-76
2023/11/04 08:09:10;;;;;;;2.28;0.68;;;9.70;99.90;;;;;;6272819;28;20045;-76
2023/11/04 08:12:14;;;;;;;0.75;0.47;;;10.10;99.90;;;;;;6281600;28;20049;-76
2023/11/04 08:15:16;;;;;;;0.47;0.35;;;10.50;99.90;;;;;;6271850;28;20049;-76
2023/11/04 08:18:18;;;;;;;1.58;1.38;;;10.80;99.90;;;;;;6270626;28;20091;-75
2023/11/04 08:21:20;;;;;;;0.65;0.47;;;11.00;99.90;;;;;;6272171;28;20044;-77
2023/11/04 08:24:21;;;;;;;1.48;0.40;;;11.10;99.90;;;;;;6275538;28;20132;-76
2023/11/04 08:27:24;;;;;;;1.20;0.40;;;11.10;99.90;;;;;;6280342;28;20048;-75
2023/11/04 08:30:26;;;;;;;0.30;0.30;;;11.20;99.90;;;;;;6271936;28;20049;-76
2023/11/04 08:33:28;;;;;;;0.93;0.38;;;11.40;99.90;;;;;;6271643;28;20055;-77
2023/11/04 08:36:29;;;;;;;0.50;0.50;;;11.60;99.90;;;;;;6269140;28;20502;-76
2023/11/04 08:39:31;;;;;;;0.93;0.63;;;11.90;99.90;;;;;;6269198;28;20088;-76
2023/11/04 08:42:34;;;;;;;0.70;0.50;;;12.20;99.90;;;;;;6266374;28;20052;-77
2023/11/04 08:45:36;;;;;;;0.85;0.43;;;12.40;99.90;;;;;;6272123;28;20123;-76
2023/11/04 08:48:38;;;;;;;0.63;0.30;;;12.60;99.90;;;;;;6271883;28;20048;-77
2023/11/04 08:51:39;;;;;;;1.10;0.40;;;12.90;99.90;;;;;;6270846;28;20048;-76
2023/11/04 08:54:41;;;;;;;2.35;1.10;;;13.20;99.90;;;;;;6271077;28;20049;-77
2023/11/04 08:57:45;;;;;;;0.45;0.45;;;13.50;99.90;;;;;;6274785;28;20040;-76
2023/11/04 09:00:47;;;;;;;2.72;0.50;;;13.50;99.90;;;;;;6283634;28;20489;-76
2023/11/04 09:03:49;;;;;;;2.28;0.40;;;13.60;99.90;;;;;;6276049;28;20098;-76
2023/11/04 09:06:50;;;;;;;1.00;0.45;;;13.60;99.90;;;;;;6273055;28;20041;-77
2023/11/04 09:09:52;;;;;;;1.25;0.50;;;13.60;99.90;;;;;;6270073;28;20051;-76
2023/11/04 09:12:56;;;;;;;0.20;0.20;;;13.70;99.90;;;;;;6271389;28;20127;-75
2023/11/04 09:15:58;;;;;;;0.40;0.40;;;13.70;99.90;;;;;;6268938;28;20052;-75
2023/11/04 09:19:01;;;;;;;2.05;0.60;;;13.70;99.90;;;;;;6276763;28;20503;-76
2023/11/04 09:22:03;;;;;;;0.40;0.40;;;13.60;99.90;;;;;;6279791;28;20075;-76
2023/11/04 09:25:05;;;;;;;2.88;0.30;;;13.60;99.90;;;;;;6270510;28;20055;-76
2023/11/04 09:28:08;;;;;;;0.38;0.20;;;13.70;99.90;;;;;;6270772;28;20041;-76
2023/11/04 09:31:10;;;;;;;0.40;0.30;;;13.80;99.90;;;;;;6270486;28;20052;-75
2023/11/04 09:34:12;;;;;;;0.95;0.20;;;13.60;99.90;;;;;;6269648;28;20041;-75
2023/11/04 09:37:13;;;;;;;1.13;0.38;;;13.40;99.90;;;;;;6278491;28;20059;-76
2023/11/04 09:40:16;;;;;;;0.95;0.57;;;13.40;99.90;;;;;;6270546;28;20056;-76
2023/11/04 09:43:19;;;;;;;2.08;0.63;;;13.20;99.90;;;;;;6277980;28;20041;-75
2023/11/04 09:46:22;;;;;;;0.10;0.10;;;13.10;99.90;;;;;;6270523;28;20545;-76
2023/11/04 09:49:24;;;;;;;0.10;0.10;;;13.00;99.90;;;;;;6269676;28;20045;-76
2023/11/04 09:52:27;;;;;;;1.17;0.20;;;12.90;99.90;;;;;;6274403;28;20061;-76
2023/11/04 09:55:29;;;;;;;1.38;0.40;;;12.90;99.90;;;;;;6269198;28;20057;-76
2023/11/04 09:58:32;;;;;;;1.05;0.20;;;12.80;99.90;;;;;;6270048;28;20152;-76
2023/11/04 10:01:35;;;;;;;2.83;0.40;;;12.70;99.90;;;;;;6278323;28;20501;-76
2023/11/04 10:04:37;;;;;;;0.25;0.20;;;12.60;99.90;;;;;;6275392;28;20057;-76
2023/11/04 10:07:39;;;;;;;0.20;0.20;;;12.60;99.90;;;;;;6296497;28;20063;-75
2023/11/04 10:10:42;;;;;;;0.25;0.25;;;12.50;99.90;;;;;;6286733;28;20078;-76
2023/11/04 10:13:46;;;;;;;3.05;0.30;;;12.50;99.90;;;;;;6274353;28;20098;-76
2023/11/04 10:16:49;;;;;;;1.40;0.47;;;12.50;99.90;;;;;;6283016;28;20044;-76
2023/11/04 10:19:52;;;;;;;0.35;0.30;;;12.50;99.90;;;;;;6281528;28;20512;-77
2023/11/04 10:22:54;;;;;;;0.30;0.30;;;12.70;99.90;;;;;;6273720;28;20041;-76
2023/11/04 10:25:58;;;;;;;2.78;1.38;;;12.80;99.90;;;;;;6268374;28;20037;-76
2023/11/04 10:29:01;;;;;;;0.63;0.32;;;12.90;99.90;;;;;;6286734;28;20060;-76
2023/11/04 10:32:04;;;;;;;0.60;0.35;;;12.90;99.90;;;;;;6284206;28;20036;-75
2023/11/04 10:35:11;;;;;;;2.50;0.50;;;12.90;99.90;;;;;;6277815;28;20520;-75
2023/11/04 10:38:17;;;;;;;0.10;0.10;;;13.00;99.90;;;;;;6279634;28;20036;-76
2023/11/04 10:41:20;;;;;;;0.73;0.20;;;13.20;99.90;;;;;;6269086;28;20040;-77
2023/11/04 10:44:28;;;;;;;1.23;0.30;;;13.30;99.90;;;;;;6286425;28;20075;-76
2023/11/04 10:47:40;;;;;;;0.93;0.22;;;13.50;99.90;;;;;;6288883;28;20056;-76
2023/11/04 10:50:44;;;;;;;0.20;0.20;;;13.60;99.90;;;;;;6277815;28;20039;-76
2023/11/04 10:53:57;;;;;;;0.38;0.30;;;13.60;99.90;;;;;;6282693;28;20053;-76
2023/11/04 10:57:09;;;;;;;0.10;0.10;;;13.50;99.90;;;;;;6273373;28;20059;-75
2023/11/04 11:00:19;;;;;;;0.50;0.30;;;13.50;99.90;;;;;;6297776;28;20055;-76
2023/11/04 11:03:22;;;;;;;0.20;0.10;;;13.40;99.90;;;;;;6265254;28;20049;-76
2023/11/04 11:06:25;;;;;;;0.73;0.20;;;13.50;99.90;;;;;;6285206;28;20071;-76
2023/11/04 11:09:28;;;;;;;0.15;0.15;;;13.60;99.90;;;;;;6274964;28;20123;-77
2023/11/04 11:12:33;;;;;;;0.63;0.30;;;13.80;99.90;;;;;;6294238;28;20049;-75
2023/11/04 11:15:36;;;;;;;0.20;0.20;;;14.00;99.90;;;;;;6275033;28;20410;-76
2023/11/04 11:18:38;;;;;;;8.55;5.38;;;14.10;99.90;;;;;;6274208;28;20052;-75
2023/11/04 11:21:49;;;;;;;6.30;3.47;;;14.10;99.90;;;;;;6290029;28;20094;-75
2023/11/04 11:24:52;;;;;;;2.83;1.38;;;14.00;99.90;;;;;;6272835;28;20041;-75
2023/11/04 11:27:55;;;;;;;10.10;6.22;;;13.80;99.90;;;;;;6281490;28;20041;-76
2023/11/04 11:30:58;;;;;;;0.60;0.60;;;13.70;99.90;;;;;;6294733;28;20058;-76
2023/11/04 11:34:08;;;;;;;0.60;0.30;;;13.60;99.90;;;;;;6284459;28;20049;-76
2023/11/04 11:37:11;;;;;;;6.43;3.75;;;13.50;99.90;;;;;;6273433;28;20405;-76
2023/11/04 11:40:14;;;;;;;0.65;0.65;;;13.40;99.90;;;;;;6289180;28;20063;-76
2023/11/04 11:43:18;;;;;;;0.38;0.38;;;13.20;99.90;;;;;;6282686;28;20067;-77
2023/11/04 11:46:22;;;;;;;0.10;0.10;;;13.10;99.90;;;;;;6290381;28;20090;-75
2023/11/04 11:49:23;;;;;;;0.30;0.28;;;12.80;99.90;;;;;;6265347;28;20483;-75
2023/11/04 11:52:26;;;;;;;0.40;0.20;;;12.40;99.90;;;;;;6269994;28;20045;-76
2023/11/04 11:55:28;;;;;;;0.20;0.20;;;11.90;99.90;;;;;;6270466;28;20388;-75
2023/11/04 11:58:31;;;;;;;0.28;0.15;;;11.40;99.90;;;;;;6272596;28;20045;-75
2023/11/04 12:01:34;;;;;;;1.85;0.40;;;11.00;99.90;;;;;;6272825;28;20041;-75
2023/11/04 12:04:36;;;;;;;0.30;0.25;;;10.80;99.90;;;;;;6273344;28;20053;-75
2023/11/04 12:07:39;;;;;;;0.25;0.22;;;10.60;99.90;;;;;;6272506;28;20049;-75
2023/11/04 12:10:43;;;;;;;0.15;0.15;;;10.50;99.90;;;;;;6272557;28;20047;-75
2023/11/04 12:13:45;;;;;;;0.20;0.20;;;10.40;99.90;;;;;;6280774;28;20045;-75
2023/11/04 12:16:48;;;;;;;1.48;0.30;;;10.20;99.90;;;;;;6273100;28;20045;-75
2023/11/04 12:19:50;;;;;;;1.42;1.00;;;10.00;99.90;;;;;;6281066;28;20519;-75
2023/11/04 12:22:52;;;;;;;0.88;0.60;;;10.00;99.90;;;;;;6272904;28;20040;-75
2023/11/04 12:25:56;;;;;;;0.90;0.50;;;9.90;99.90;;;;;;6272197;28;20041;-75
2023/11/04 12:28:59;;;;;;;0.50;0.40;;;9.90;99.90;;;;;;6277180;28;20417;-75
2023/11/04 12:32:03;;;;;;;0.70;0.70;;;9.90;99.90;;;;;;6283414;28;20041;-75
2023/11/04 12:35:06;;;;;;;1.95;0.60;;;9.90;99.90;;;;;;6280183;28;20072;-75
2023/11/04 12:38:08;;;;;;;2.40;0.50;;;9.80;99.90;;;;;;6280140;28;20094;-76
2023/11/04 12:41:10;;;;;;;0.95;0.30;;;9.80;99.90;;;;;;6272186;28;20044;-75
2023/11/04 12:44:13;;;;;;;0.70;0.43;;;9.80;99.90;;;;;;6277722;28;20049;-75
2023/11/04 12:47:16;;;;;;;1.02;0.50;;;9.80;99.90;;;;;;6272008;28;20083;-76
2023/11/04 12:50:18;;;;;;;0.60;0.30;;;9.80;99.90;;;;;;6279082;28;20032;-76
2023/11/04 12:53:22;;;;;;;0.45;0.40;;;9.80;99.90;;;;;;6274831;28;20079;-76
2023/11/04 12:56:24;;;;;;;1.05;0.40;;;9.80;99.90;;;;;;6272299;28;20052;-75
2023/11/04 12:59:26;;;;;;;1.02;0.70;;;9.90;99.90;;;;;;6279902;28;20055;-74
2023/11/04 13:02:29;;;;;;;2.72;0.80;;;10.00;99.90;;;;;;6280122;28;20054;-73
2023/11/04 13:05:30;;;;;;;0.55;0.40;;;10.00;99.90;;;;;;6284795;28;20045;-74
2023/11/04 13:08:34;;;;;;;1.65;0.90;;;10.10;99.90;;;;;;6281291;28;20075;-78
2023/11/04 13:11:36;;;;;;;1.95;0.90;;;10.20;99.90;;;;;;6280329;28;20047;-78
2023/11/04 13:14:38;;;;;;;0.57;0.57;;;10.20;99.90;;;;;;6285880;28;20044;-79
2023/11/04 13:17:41;;;;;;;3.13;0.90;;;10.30;99.90;;;;;;6281666;28;20063;-77
2023/11/04 13:20:43;;;;;;;1.20;0.82;;;10.30;99.90;;;;;;6273961;28;20047;-77
2023/11/04 13:23:45;;;;;;;0.82;0.65;;;10.40;99.90;;;;;;6275769;28;20048;-77
2023/11/04 13:26:47;;;;;;;0.30;0.30;;;10.40;99.90;;;;;;6288627;28;20053;-77
2023/11/04 13:29:54;;;;;;;1.13;0.32;;;10.50;99.90;;;;;;6283006;28;20051;-77
2023/11/04 13:32:57;;;;;;;1.10;0.55;;;10.50;99.90;;;;;;6277239;28;20049;-77
2023/11/04 13:36:00;;;;;;;0.55;0.43;;;10.50;99.90;;;;;;6272572;28;20048;-77
2023/11/04 13:39:06;;;;;;;0.50;0.35;;;10.40;99.90;;;;;;6272548;28;20052;-77
2023/11/04 13:42:07;;;;;;;0.50;0.50;;;10.30;99.90;;;;;;6271769;28;20045;-76
2023/11/04 13:45:10;;;;;;;0.40;0.30;;;10.40;99.90;;;;;;6271321;28;20045;-76
2023/11/04 13:48:13;;;;;;;0.70;0.40;;;10.40;99.90;;;;;;6272013;28;20041;-76
2023/11/04 13:51:15;;;;;;;0.65;0.40;;;10.40;99.90;;;;;;6279312;28;20055;-76
2023/11/04 13:54:17;;;;;;;0.45;0.43;;;10.30;99.90;;;;;;6273788;28;20037;-76
2023/11/04 13:57:19;;;;;;;0.70;0.63;;;10.20;99.90;;;;;;6279140;28;20679;-76
2023/11/04 14:00:20;;;;;;;0.55;0.45;;;10.10;99.90;;;;;;6278554;28;20059;-76
2023/11/04 14:03:23;;;;;;;0.30;0.30;;;10.00;99.90;;;;;;6271569;28;20074;-76
2023/11/04 14:06:25;;;;;;;0.20;0.20;;;9.80;99.90;;;;;;6278470;28;20045;-76
2023/11/04 14:09:27;;;;;;;0.75;0.50;;;9.70;99.90;;;;;;6288956;28;20078;-77
2023/11/04 14:12:29;;;;;;;0.60;0.50;;;9.50;99.90;;;;;;6279593;28;20506;-75
2023/11/04 14:15:30;;;;;;;0.68;0.45;;;9.40;99.90;;;;;;6270728;28;20041;-76
2023/11/04 14:18:34;;;;;;;3.13;0.52;;;9.40;99.90;;;;;;6280365;28;20049;-76
2023/11/04 14:21:35;;;;;;;0.30;0.30;;;9.30;99.90;;;;;;6276446;28;20063;-78
2023/11/04 14:24:38;;;;;;;0.50;0.30;;;9.30;99.90;;;;;;6278417;28;20056;-76
2023/11/04 14:27:40;;;;;;;0.52;0.50;;;9.30;99.90;;;;;;6283636;28;20053;-77
2023/11/04 14:30:42;;;;;;;0.45;0.40;;;9.30;99.90;;;;;;6283420;28;20040;-74
2023/11/04 14:33:45;;;;;;;1.95;0.80;;;9.30;99.90;;;;;;6292439;28;20117;-78
2023/11/04 14:36:46;;;;;;;0.50;0.50;;;9.40;99.90;;;;;;6295100;28;20055;-76
2023/11/04 14:39:48;;;;;;;4.75;0.35;;;9.40;99.90;;;;;;6276127;28;20182;-77
2023/11/04 14:42:50;;;;;;;0.40;0.40;;;9.40;99.90;;;;;;6278038;28;20087;-76
2023/11/04 14:45:53;;;;;;;0.20;0.13;;;9.40;99.90;;;;;;6277321;28;20606;-76
2023/11/04 14:48:56;;;;;;;0.20;0.20;;;9.40;99.90;;;;;;6280774;28;20057;-76
2023/11/04 14:51:58;;;;;;;0.32;0.32;;;9.40;99.90;;;;;;6275680;28;20037;-76
2023/11/04 14:55:00;;;;;;;0.20;0.20;;;9.40;99.90;;;;;;6272036;28;20536;-76
2023/11/04 14:58:02;;;;;;;0.30;0.25;;;9.50;99.90;;;;;;6275369;28;20049;-76
2023/11/04 15:01:04;;;;;;;0.63;0.52;;;9.50;99.90;;;;;;6287525;28;20067;-76
2023/11/04 15:04:07;;;;;;;0.95;0.50;;;9.50;99.90;;;;;;6282858;28;20058;-76
2023/11/04 15:07:09;;;;;;;1.45;0.75;;;9.50;99.90;;;;;;6284810;28;20041;-77
2023/11/04 15:10:11;;;;;;;1.35;0.40;;;9.50;99.90;;;;;;6283318;28;20040;-77
2023/11/04 15:13:13;;;;;;;1.35;0.73;;;9.50;99.90;;;;;;6282701;28;20069;-76
2023/11/04 15:16:14;;;;;;;6.05;3.08;;;9.60;99.90;;;;;;6283131;28;20521;-76
2023/11/04 15:19:17;;;;;;;1.52;1.13;;;9.60;99.90;;;;;;6280480;28;20449;-77
2023/11/04 15:22:19;;;;;;;0.60;0.60;;;9.60;99.90;;;;;;6286074;28;20056;-76
2023/11/04 15:25:21;;;;;;;2.42;0.90;;;9.70;99.90;;;;;;6281279;28;20045;-77
2023/11/04 15:28:24;;;;;;;2.40;0.70;;;9.70;99.90;;;;;;6278294;28;20048;-80
2023/11/04 15:31:25;;;;;;;16.73;8.23;;;9.70;99.90;;;;;;6274688;28;20045;-76
2023/11/04 15:34:29;;;;;;;29.55;15.85;;;9.70;99.90;;;;;;6275516;28;20041;-79
2023/11/04 15:37:30;;;;;;;31.67;20.30;;;9.70;99.90;;;;;;6279083;28;20045;-79
2023/11/04 15:40:32;;;;;;;3.03;2.42;;;9.80;99.90;;;;;;6287067;28;20053;-77
2023/11/04 15:43:34;;;;;;;2.83;0.55;;;9.90;99.90;;;;;;6297207;28;20148;-77
2023/11/04 15:46:36;;;;;;;0.85;0.63;;;10.00;99.90;;;;;;6270509;28;20568;-75
2023/11/04 15:49:39;;;;;;;0.50;0.30;;;10.20;99.90;;;;;;6278015;28;20051;-78
2023/11/04 15:52:40;;;;;;;0.68;0.68;;;10.40;99.90;;;;;;6278456;28;20052;-77
2023/11/04 15:55:42;;;;;;;0.10;0.10;;;10.70;99.90;;;;;;6276780;28;20455;-77
2023/11/04 15:58:44;;;;;;;1.38;0.73;;;10.80;99.90;;;;;;6277916;28;20053;-76
2023/11/04 16:01:46;;;;;;;1.88;0.82;;;10.90;99.90;;;;;;6292254;28;20055;-78